sensor_id;sensor_type;location;lat;lon;timestamp;P1;durP1;ratioP1;P2;durP2;ratioP2
46651;SDS011;32377;52.182;5.398;2024-03-08T00:01:52;55.67;;;27.30;;
46651;SDS011;32377;52.182;5.398;2024-03-08T00:04:18;59.83;;;26.43;;
46651;SDS011;32377;52.182;5.398;2024-03-08T00:06:44;55.90;;;27.20;;
46651;SDS011;32377;52.182;5.398;2024-03-08T00:09:11;57.07;;;28.23;;
46651;SDS011;32377;52.182;5.398;2024-03-08T00:11:37;55.20;;;27.83;;
46651;SDS011;32377;52.182;5.398;2024-03-08T00:14:02;57.87;;;27.47;;
46651;SDS011;32377;52.182;5.398;2024-03-08T00:16:31;59.20;;;28.20;;
46651;SDS011;32377;52.182;5.398;2024-03-08T00:18:57;58.53;;;27.03;;
46651;SDS011;32377;52.182;5.398;2024-03-08T00:21:23;54.10;;;26.93;;
46651;SDS011;32377;52.182;5.398;2024-03-08T00:23:49;54.63;;;25.87;;
46651;SDS011;32377;52.182;5.398;2024-03-08T00:26:15;52.60;;;26.70;;
46651;SDS011;32377;52.182;5.398;2024-03-08T00:28:40;59.83;;;27.80;;
46651;SDS011;32377;52.182;5.398;2024-03-08T00:31:06;56.97;;;27.47;;
46651;SDS011;32377;52.182;5.398;2024-03-08T00:33:32;57.50;;;27.83;;
46651;SDS011;32377;52.182;5.398;2024-03-08T00:35:58;55.23;;;26.73;;
46651;SDS011;32377;52.182;5.398;2024-03-08T00:38:23;52.03;;;26.63;;
46651;SDS011;32377;52.182;5.398;2024-03-08T00:40:49;54.20;;;26.23;;
46651;SDS011;32377;52.182;5.398;2024-03-08T00:43:15;52.60;;;26.47;;
46651;SDS011;32377;52.182;5.398;2024-03-08T00:45:40;55.93;;;25.50;;
46651;SDS011;32377;52.182;5.398;2024-03-08T00:48:09;52.63;;;27.43;;
46651;SDS011;32377;52.182;5.398;2024-03-08T00:50:39;49.40;;;26.37;;
46651;SDS011;32377;52.182;5.398;2024-03-08T00:53:04;52.57;;;27.53;;
46651;SDS011;32377;52.182;5.398;2024-03-08T00:55:30;56.13;;;27.90;;
46651;SDS011;32377;52.182;5.398;2024-03-08T00:57:56;52.37;;;27.33;;
46651;SDS011;32377;52.182;5.398;2024-03-08T01:00:22;49.90;;;25.17;;
46651;SDS011;32377;52.182;5.398;2024-03-08T01:02:47;50.33;;;25.93;;
46651;SDS011;32377;52.182;5.398;2024-03-08T01:05:13;56.27;;;27.37;;
46651;SDS011;32377;52.182;5.398;2024-03-08T01:07:38;52.30;;;27.47;;
46651;SDS011;32377;52.182;5.398;2024-03-08T01:10:04;55.97;;;27.63;;
46651;SDS011;32377;52.182;5.398;2024-03-08T01:12:34;48.63;;;25.50;;
46651;SDS011;32377;52.182;5.398;2024-03-08T01:15:00;55.37;;;26.93;;
46651;SDS011;32377;52.182;5.398;2024-03-08T01:17:26;55.23;;;27.57;;
46651;SDS011;32377;52.182;5.398;2024-03-08T01:19:52;51.80;;;26.60;;
46651;SDS011;32377;52.182;5.398;2024-03-08T01:22:18;52.03;;;25.87;;
46651;SDS011;32377;52.182;5.398;2024-03-08T01:24:44;53.37;;;26.87;;
46651;SDS011;32377;52.182;5.398;2024-03-08T01:27:10;58.80;;;27.90;;
46651;SDS011;32377;52.182;5.398;2024-03-08T01:29:37;58.00;;;29.33;;
46651;SDS011;32377;52.182;5.398;2024-03-08T01:32:03;52.13;;;27.10;;
46651;SDS011;32377;52.182;5.398;2024-03-08T01:34:28;51.70;;;27.03;;
46651;SDS011;32377;52.182;5.398;2024-03-08T01:36:54;52.70;;;26.63;;
46651;SDS011;32377;52.182;5.398;2024-03-08T01:39:23;57.27;;;25.87;;
46651;SDS011;32377;52.182;5.398;2024-03-08T01:41:48;51.87;;;27.73;;
46651;SDS011;32377;52.182;5.398;2024-03-08T01:44:14;50.20;;;26.90;;
46651;SDS011;32377;52.182;5.398;2024-03-08T01:46:42;52.07;;;27.90;;
46651;SDS011;32377;52.182;5.398;2024-03-08T01:49:10;55.57;;;26.33;;
46651;SDS011;32377;52.182;5.398;2024-03-08T01:51:36;55.20;;;27.27;;
46651;SDS011;32377;52.182;5.398;2024-03-08T01:54:02;52.57;;;26.90;;
46651;SDS011;32377;52.182;5.398;2024-03-08T01:56:29;57.47;;;27.10;;
46651;SDS011;32377;52.182;5.398;2024-03-08T01:58:56;53.93;;;27.70;;
46651;SDS011;32377;52.182;5.398;2024-03-08T02:01:23;49.97;;;27.40;;
46651;SDS011;32377;52.182;5.398;2024-03-08T02:03:50;55.13;;;28.07;;
46651;SDS011;32377;52.182;5.398;2024-03-08T02:06:15;60.03;;;27.73;;
46651;SDS011;32377;52.182;5.398;2024-03-08T02:08:42;51.83;;;26.30;;
46651;SDS011;32377;52.182;5.398;2024-03-08T02:11:12;56.77;;;27.47;;
46651;SDS011;32377;52.182;5.398;2024-03-08T02:13:38;53.93;;;27.80;;
46651;SDS011;32377;52.182;5.398;2024-03-08T02:16:03;52.80;;;27.40;;
46651;SDS011;32377;52.182;5.398;2024-03-08T02:18:32;61.57;;;28.67;;
46651;SDS011;32377;52.182;5.398;2024-03-08T02:21:00;56.73;;;28.03;;
46651;SDS011;32377;52.182;5.398;2024-03-08T02:23:27;50.33;;;26.77;;
46651;SDS011;32377;52.182;5.398;2024-03-08T02:25:54;59.93;;;28.30;;
46651;SDS011;32377;52.182;5.398;2024-03-08T02:28:21;60.90;;;29.10;;
46651;SDS011;32377;52.182;5.398;2024-03-08T02:30:47;61.30;;;29.47;;
46651;SDS011;32377;52.182;5.398;2024-03-08T02:33:14;58.63;;;28.27;;
46651;SDS011;32377;52.182;5.398;2024-03-08T02:35:44;54.17;;;28.17;;
46651;SDS011;32377;52.182;5.398;2024-03-08T02:38:11;59.03;;;28.23;;
46651;SDS011;32377;52.182;5.398;2024-03-08T02:40:46;50.70;;;26.33;;
46651;SDS011;32377;52.182;5.398;2024-03-08T02:43:14;60.57;;;29.00;;
46651;SDS011;32377;52.182;5.398;2024-03-08T02:45:40;55.53;;;28.40;;
46651;SDS011;32377;52.182;5.398;2024-03-08T02:48:07;58.03;;;27.50;;
46651;SDS011;32377;52.182;5.398;2024-03-08T02:50:33;57.97;;;27.80;;
46651;SDS011;32377;52.182;5.398;2024-03-08T02:53:00;53.77;;;27.67;;
46651;SDS011;32377;52.182;5.398;2024-03-08T02:55:26;58.27;;;28.90;;
46651;SDS011;32377;52.182;5.398;2024-03-08T02:57:52;55.07;;;28.03;;
46651;SDS011;32377;52.182;5.398;2024-03-08T03:00:19;56.37;;;28.60;;
46651;SDS011;32377;52.182;5.398;2024-03-08T03:02:48;53.73;;;28.60;;
46651;SDS011;32377;52.182;5.398;2024-03-08T03:05:18;61.53;;;30.03;;
46651;SDS011;32377;52.182;5.398;2024-03-08T03:07:50;57.13;;;28.13;;
46651;SDS011;32377;52.182;5.398;2024-03-08T03:10:16;54.80;;;28.07;;
46651;SDS011;32377;52.182;5.398;2024-03-08T03:12:42;55.10;;;28.07;;
46651;SDS011;32377;52.182;5.398;2024-03-08T03:15:09;61.63;;;28.87;;
46651;SDS011;32377;52.182;5.398;2024-03-08T03:17:36;55.20;;;28.73;;
46651;SDS011;32377;52.182;5.398;2024-03-08T03:20:04;57.53;;;29.30;;
46651;SDS011;32377;52.182;5.398;2024-03-08T03:22:35;60.50;;;29.50;;
46651;SDS011;32377;52.182;5.398;2024-03-08T03:25:02;54.47;;;28.63;;
46651;SDS011;32377;52.182;5.398;2024-03-08T03:27:29;57.97;;;28.23;;
46651;SDS011;32377;52.182;5.398;2024-03-08T03:29:55;61.00;;;28.97;;
46651;SDS011;32377;52.182;5.398;2024-03-08T03:32:22;55.17;;;29.73;;
46651;SDS011;32377;52.182;5.398;2024-03-08T03:34:51;52.90;;;27.73;;
46651;SDS011;32377;52.182;5.398;2024-03-08T03:37:18;55.50;;;28.93;;
46651;SDS011;32377;52.182;5.398;2024-03-08T03:39:44;55.37;;;27.77;;
46651;SDS011;32377;52.182;5.398;2024-03-08T03:42:18;61.80;;;30.57;;
46651;SDS011;32377;52.182;5.398;2024-03-08T03:44:47;59.37;;;30.93;;
46651;SDS011;32377;52.182;5.398;2024-03-08T03:47:17;55.33;;;28.83;;
46651;SDS011;32377;52.182;5.398;2024-03-08T03:49:43;57.33;;;29.17;;
46651;SDS011;32377;52.182;5.398;2024-03-08T03:52:10;53.97;;;28.87;;
46651;SDS011;32377;52.182;5.398;2024-03-08T03:54:35;53.00;;;28.97;;
46651;SDS011;32377;52.182;5.398;2024-03-08T03:57:01;55.67;;;29.80;;
46651;SDS011;32377;52.182;5.398;2024-03-08T03:59:27;53.03;;;28.53;;
46651;SDS011;32377;52.182;5.398;2024-03-08T04:01:53;63.57;;;31.73;;
46651;SDS011;32377;52.182;5.398;2024-03-08T04:04:19;58.93;;;30.10;;
46651;SDS011;32377;52.182;5.398;2024-03-08T04:06:45;62.67;;;30.77;;
46651;SDS011;32377;52.182;5.398;2024-03-08T04:09:11;57.80;;;30.93;;
46651;SDS011;32377;52.182;5.398;2024-03-08T04:11:37;53.67;;;28.30;;
46651;SDS011;32377;52.182;5.398;2024-03-08T04:14:03;58.50;;;31.33;;
46651;SDS011;32377;52.182;5.398;2024-03-08T04:16:30;56.87;;;29.97;;
46651;SDS011;32377;52.182;5.398;2024-03-08T04:18:56;54.30;;;29.60;;
46651;SDS011;32377;52.182;5.398;2024-03-08T04:21:22;56.63;;;31.30;;
46651;SDS011;32377;52.182;5.398;2024-03-08T04:23:48;61.73;;;32.13;;
46651;SDS011;32377;52.182;5.398;2024-03-08T04:26:14;58.67;;;30.67;;
46651;SDS011;32377;52.182;5.398;2024-03-08T04:28:39;59.53;;;30.27;;
46651;SDS011;32377;52.182;5.398;2024-03-08T04:31:06;65.47;;;32.17;;
46651;SDS011;32377;52.182;5.398;2024-03-08T04:33:32;60.17;;;31.40;;
46651;SDS011;32377;52.182;5.398;2024-03-08T04:36:00;58.50;;;31.03;;
46651;SDS011;32377;52.182;5.398;2024-03-08T04:38:26;59.60;;;31.33;;
46651;SDS011;32377;52.182;5.398;2024-03-08T04:40:51;61.73;;;32.03;;
46651;SDS011;32377;52.182;5.398;2024-03-08T04:43:17;62.70;;;30.60;;
46651;SDS011;32377;52.182;5.398;2024-03-08T04:45:43;65.70;;;31.27;;
46651;SDS011;32377;52.182;5.398;2024-03-08T04:48:09;53.73;;;30.43;;
46651;SDS011;32377;52.182;5.398;2024-03-08T04:50:36;58.53;;;30.60;;
46651;SDS011;32377;52.182;5.398;2024-03-08T04:53:03;56.70;;;30.60;;
46651;SDS011;32377;52.182;5.398;2024-03-08T04:55:33;54.00;;;29.07;;
46651;SDS011;32377;52.182;5.398;2024-03-08T04:59:24;52.83;;;30.33;;
46651;SDS011;32377;52.182;5.398;2024-03-08T05:01:50;56.97;;;29.83;;
46651;SDS011;32377;52.182;5.398;2024-03-08T05:04:16;59.97;;;30.77;;
46651;SDS011;32377;52.182;5.398;2024-03-08T05:06:41;60.10;;;31.23;;
46651;SDS011;32377;52.182;5.398;2024-03-08T05:09:07;55.40;;;31.17;;
46651;SDS011;32377;52.182;5.398;2024-03-08T05:11:39;56.10;;;29.73;;
46651;SDS011;32377;52.182;5.398;2024-03-08T05:14:05;58.47;;;31.27;;
46651;SDS011;32377;52.182;5.398;2024-03-08T05:16:31;58.07;;;30.77;;
46651;SDS011;32377;52.182;5.398;2024-03-08T05:18:57;55.37;;;30.03;;
46651;SDS011;32377;52.182;5.398;2024-03-08T05:21:22;59.17;;;30.43;;
46651;SDS011;32377;52.182;5.398;2024-03-08T05:23:48;54.30;;;30.30;;
46651;SDS011;32377;52.182;5.398;2024-03-08T05:26:15;56.60;;;30.40;;
46651;SDS011;32377;52.182;5.398;2024-03-08T05:28:41;52.13;;;28.77;;
46651;SDS011;32377;52.182;5.398;2024-03-08T05:31:07;54.83;;;30.10;;
46651;SDS011;32377;52.182;5.398;2024-03-08T05:33:33;59.30;;;31.43;;
46651;SDS011;32377;52.182;5.398;2024-03-08T05:36:02;57.90;;;31.13;;
46651;SDS011;32377;52.182;5.398;2024-03-08T05:38:28;55.87;;;30.07;;
46651;SDS011;32377;52.182;5.398;2024-03-08T05:40:54;54.20;;;30.03;;
46651;SDS011;32377;52.182;5.398;2024-03-08T05:43:19;57.40;;;29.57;;
46651;SDS011;32377;52.182;5.398;2024-03-08T05:45:45;60.63;;;31.13;;
46651;SDS011;32377;52.182;5.398;2024-03-08T05:48:12;60.83;;;29.93;;
46651;SDS011;32377;52.182;5.398;2024-03-08T05:50:38;60.70;;;31.90;;
46651;SDS011;32377;52.182;5.398;2024-03-08T05:53:04;55.77;;;31.60;;
46651;SDS011;32377;52.182;5.398;2024-03-08T05:55:32;53.80;;;29.93;;
46651;SDS011;32377;52.182;5.398;2024-03-08T05:58:00;59.80;;;30.47;;
46651;SDS011;32377;52.182;5.398;2024-03-08T06:00:26;59.53;;;31.77;;
46651;SDS011;32377;52.182;5.398;2024-03-08T06:02:52;59.90;;;31.37;;
46651;SDS011;32377;52.182;5.398;2024-03-08T06:05:17;59.27;;;30.47;;
46651;SDS011;32377;52.182;5.398;2024-03-08T06:07:43;61.47;;;31.47;;
46651;SDS011;32377;52.182;5.398;2024-03-08T06:10:09;60.37;;;31.97;;
46651;SDS011;32377;52.182;5.398;2024-03-08T06:12:36;59.37;;;32.40;;
46651;SDS011;32377;52.182;5.398;2024-03-08T06:15:08;55.43;;;31.40;;
46651;SDS011;32377;52.182;5.398;2024-03-08T06:17:35;58.63;;;31.00;;
46651;SDS011;32377;52.182;5.398;2024-03-08T06:20:01;56.43;;;32.30;;
46651;SDS011;32377;52.182;5.398;2024-03-08T06:22:28;59.30;;;31.90;;
46651;SDS011;32377;52.182;5.398;2024-03-08T06:24:55;55.67;;;29.27;;
46651;SDS011;32377;52.182;5.398;2024-03-08T06:27:21;58.83;;;31.93;;
46651;SDS011;32377;52.182;5.398;2024-03-08T06:29:47;60.57;;;30.57;;
46651;SDS011;32377;52.182;5.398;2024-03-08T06:32:14;66.50;;;32.63;;
46651;SDS011;32377;52.182;5.398;2024-03-08T06:34:40;59.70;;;31.13;;
46651;SDS011;32377;52.182;5.398;2024-03-08T06:37:06;57.67;;;30.67;;
46651;SDS011;32377;52.182;5.398;2024-03-08T06:39:31;57.00;;;30.67;;
46651;SDS011;32377;52.182;5.398;2024-03-08T06:41:57;55.80;;;29.50;;
46651;SDS011;32377;52.182;5.398;2024-03-08T06:44:23;59.53;;;31.37;;
46651;SDS011;32377;52.182;5.398;2024-03-08T06:46:49;57.93;;;30.90;;
46651;SDS011;32377;52.182;5.398;2024-03-08T06:49:14;57.13;;;30.87;;
46651;SDS011;32377;52.182;5.398;2024-03-08T06:51:40;63.20;;;32.40;;
46651;SDS011;32377;52.182;5.398;2024-03-08T06:54:06;59.43;;;31.67;;
46651;SDS011;32377;52.182;5.398;2024-03-08T06:56:36;64.60;;;32.53;;
46651;SDS011;32377;52.182;5.398;2024-03-08T06:59:02;60.53;;;32.17;;
46651;SDS011;32377;52.182;5.398;2024-03-08T07:01:28;58.63;;;31.73;;
46651;SDS011;32377;52.182;5.398;2024-03-08T07:03:57;58.17;;;32.50;;
46651;SDS011;32377;52.182;5.398;2024-03-08T07:06:23;59.70;;;32.63;;
46651;SDS011;32377;52.182;5.398;2024-03-08T07:08:48;56.87;;;32.73;;
46651;SDS011;32377;52.182;5.398;2024-03-08T07:11:14;52.40;;;30.77;;
46651;SDS011;32377;52.182;5.398;2024-03-08T07:13:43;53.57;;;30.73;;
46651;SDS011;32377;52.182;5.398;2024-03-08T07:16:11;57.47;;;32.60;;
46651;SDS011;32377;52.182;5.398;2024-03-08T07:18:37;62.70;;;31.27;;
46651;SDS011;32377;52.182;5.398;2024-03-08T07:21:08;57.10;;;31.87;;
46651;SDS011;32377;52.182;5.398;2024-03-08T07:23:35;53.60;;;31.00;;
46651;SDS011;32377;52.182;5.398;2024-03-08T07:26:20;54.10;;;31.40;;
46651;SDS011;32377;52.182;5.398;2024-03-08T07:28:46;53.40;;;30.07;;
46651;SDS011;32377;52.182;5.398;2024-03-08T07:31:11;59.30;;;32.03;;
46651;SDS011;32377;52.182;5.398;2024-03-08T07:33:37;55.43;;;30.53;;
46651;SDS011;32377;52.182;5.398;2024-03-08T07:36:03;56.90;;;31.17;;
46651;SDS011;32377;52.182;5.398;2024-03-08T07:38:29;55.10;;;31.10;;
46651;SDS011;32377;52.182;5.398;2024-03-08T07:40:55;55.90;;;30.97;;
46651;SDS011;32377;52.182;5.398;2024-03-08T07:43:22;61.30;;;31.70;;
46651;SDS011;32377;52.182;5.398;2024-03-08T07:45:48;53.10;;;30.90;;
46651;SDS011;32377;52.182;5.398;2024-03-08T07:48:13;59.13;;;31.53;;
46651;SDS011;32377;52.182;5.398;2024-03-08T07:50:39;58.07;;;31.57;;
46651;SDS011;32377;52.182;5.398;2024-03-08T07:53:05;56.70;;;32.07;;
46651;SDS011;32377;52.182;5.398;2024-03-08T07:55:32;54.13;;;30.07;;
46651;SDS011;32377;52.182;5.398;2024-03-08T07:57:59;55.60;;;31.07;;
46651;SDS011;32377;52.182;5.398;2024-03-08T08:00:25;53.17;;;30.17;;
46651;SDS011;32377;52.182;5.398;2024-03-08T08:02:52;55.50;;;31.70;;
46651;SDS011;32377;52.182;5.398;2024-03-08T08:05:18;55.97;;;32.60;;
46651;SDS011;32377;52.182;5.398;2024-03-08T08:07:44;51.80;;;30.27;;
46651;SDS011;32377;52.182;5.398;2024-03-08T08:10:11;52.63;;;28.47;;
46651;SDS011;32377;52.182;5.398;2024-03-08T08:12:46;54.50;;;30.73;;
46651;SDS011;32377;52.182;5.398;2024-03-08T08:15:15;55.40;;;31.50;;
46651;SDS011;32377;52.182;5.398;2024-03-08T08:17:41;54.03;;;28.83;;
46651;SDS011;32377;52.182;5.398;2024-03-08T08:20:08;50.27;;;29.67;;
46651;SDS011;32377;52.182;5.398;2024-03-08T08:22:36;51.80;;;29.53;;
46651;SDS011;32377;52.182;5.398;2024-03-08T08:25:04;55.10;;;30.63;;
46651;SDS011;32377;52.182;5.398;2024-03-08T08:27:29;55.73;;;30.63;;
46651;SDS011;32377;52.182;5.398;2024-03-08T08:29:55;51.50;;;29.60;;
46651;SDS011;32377;52.182;5.398;2024-03-08T08:32:21;48.87;;;29.10;;
46651;SDS011;32377;52.182;5.398;2024-03-08T08:34:47;52.13;;;30.23;;
46651;SDS011;32377;52.182;5.398;2024-03-08T08:37:13;50.40;;;29.23;;
46651;SDS011;32377;52.182;5.398;2024-03-08T08:39:38;50.73;;;29.43;;
46651;SDS011;32377;52.182;5.398;2024-03-08T08:42:04;50.33;;;29.70;;
46651;SDS011;32377;52.182;5.398;2024-03-08T08:44:30;52.90;;;29.53;;
46651;SDS011;32377;52.182;5.398;2024-03-08T08:46:56;52.40;;;29.80;;
46651;SDS011;32377;52.182;5.398;2024-03-08T08:49:22;50.70;;;29.37;;
46651;SDS011;32377;52.182;5.398;2024-03-08T08:51:52;48.13;;;28.93;;
46651;SDS011;32377;52.182;5.398;2024-03-08T08:54:18;52.43;;;29.13;;
46651;SDS011;32377;52.182;5.398;2024-03-08T08:56:44;54.42;;;29.90;;
46651;SDS011;32377;52.182;5.398;2024-03-08T08:59:09;49.53;;;28.83;;
46651;SDS011;32377;52.182;5.398;2024-03-08T09:01:39;49.40;;;28.10;;
46651;SDS011;32377;52.182;5.398;2024-03-08T09:04:05;51.30;;;28.27;;
46651;SDS011;32377;52.182;5.398;2024-03-08T09:06:31;51.40;;;30.73;;
46651;SDS011;32377;52.182;5.398;2024-03-08T09:08:56;48.20;;;29.50;;
46651;SDS011;32377;52.182;5.398;2024-03-08T09:11:22;47.33;;;28.00;;
46651;SDS011;32377;52.182;5.398;2024-03-08T09:13:50;49.33;;;29.15;;
46651;SDS011;32377;52.182;5.398;2024-03-08T09:16:16;50.83;;;28.47;;
46651;SDS011;32377;52.182;5.398;2024-03-08T09:18:41;49.45;;;28.23;;
46651;SDS011;32377;52.182;5.398;2024-03-08T09:21:07;49.08;;;28.92;;
46651;SDS011;32377;52.182;5.398;2024-03-08T09:23:35;50.28;;;27.88;;
46651;SDS011;32377;52.182;5.398;2024-03-08T09:26:01;49.20;;;27.48;;
46651;SDS011;32377;52.182;5.398;2024-03-08T09:28:28;46.80;;;27.52;;
46651;SDS011;32377;52.182;5.398;2024-03-08T09:30:54;51.78;;;29.00;;
46651;SDS011;32377;52.182;5.398;2024-03-08T09:33:20;46.28;;;27.33;;
46651;SDS011;32377;52.182;5.398;2024-03-08T09:35:47;48.20;;;27.08;;
46651;SDS011;32377;52.182;5.398;2024-03-08T09:38:13;46.65;;;28.30;;
46651;SDS011;32377;52.182;5.398;2024-03-08T09:40:42;50.72;;;27.70;;
46651;SDS011;32377;52.182;5.398;2024-03-08T09:43:09;49.53;;;27.30;;
46651;SDS011;32377;52.182;5.398;2024-03-08T09:45:37;45.88;;;26.60;;
46651;SDS011;32377;52.182;5.398;2024-03-08T09:48:06;45.40;;;27.25;;
46651;SDS011;32377;52.182;5.398;2024-03-08T09:50:39;43.03;;;26.25;;
46651;SDS011;32377;52.182;5.398;2024-03-08T09:53:08;45.60;;;28.02;;
46651;SDS011;32377;52.182;5.398;2024-03-08T09:55:37;45.08;;;26.48;;
46651;SDS011;32377;52.182;5.398;2024-03-08T09:58:07;47.72;;;26.83;;
46651;SDS011;32377;52.182;5.398;2024-03-08T10:00:56;43.92;;;25.45;;
46651;SDS011;32377;52.182;5.398;2024-03-08T10:03:22;44.58;;;26.70;;
46651;SDS011;32377;52.182;5.398;2024-03-08T10:05:51;45.78;;;27.02;;
46651;SDS011;32377;52.182;5.398;2024-03-08T10:08:17;46.05;;;25.75;;
46651;SDS011;32377;52.182;5.398;2024-03-08T10:10:42;48.20;;;25.13;;
46651;SDS011;32377;52.182;5.398;2024-03-08T10:13:08;42.20;;;25.75;;
46651;SDS011;32377;52.182;5.398;2024-03-08T10:15:35;45.63;;;25.77;;
46651;SDS011;32377;52.182;5.398;2024-03-08T10:18:05;43.88;;;25.52;;
46651;SDS011;32377;52.182;5.398;2024-03-08T10:20:32;41.40;;;24.50;;
46651;SDS011;32377;52.182;5.398;2024-03-08T10:22:58;44.38;;;26.58;;
46651;SDS011;32377;52.182;5.398;2024-03-08T10:25:32;40.67;;;24.55;;
46651;SDS011;32377;52.182;5.398;2024-03-08T10:27:57;39.17;;;25.38;;
46651;SDS011;32377;52.182;5.398;2024-03-08T10:30:23;43.42;;;25.52;;
46651;SDS011;32377;52.182;5.398;2024-03-08T10:32:49;39.88;;;25.33;;
46651;SDS011;32377;52.182;5.398;2024-03-08T10:35:14;44.25;;;25.23;;
46651;SDS011;32377;52.182;5.398;2024-03-08T10:37:45;39.13;;;24.02;;
46651;SDS011;32377;52.182;5.398;2024-03-08T10:40:16;39.85;;;24.00;;
46651;SDS011;32377;52.182;5.398;2024-03-08T10:42:53;36.35;;;23.45;;
46651;SDS011;32377;52.182;5.398;2024-03-08T10:45:31;36.03;;;22.38;;
46651;SDS011;32377;52.182;5.398;2024-03-08T10:48:08;36.65;;;21.95;;
46651;SDS011;32377;52.182;5.398;2024-03-08T10:50:35;38.43;;;23.80;;
46651;SDS011;32377;52.182;5.398;2024-03-08T10:53:01;42.40;;;24.77;;
46651;SDS011;32377;52.182;5.398;2024-03-08T10:55:31;39.92;;;24.15;;
46651;SDS011;32377;52.182;5.398;2024-03-08T10:59:28;39.83;;;23.67;;
46651;SDS011;32377;52.182;5.398;2024-03-08T11:01:55;36.70;;;23.40;;
46651;SDS011;32377;52.182;5.398;2024-03-08T11:04:20;37.13;;;23.92;;
46651;SDS011;32377;52.182;5.398;2024-03-08T11:06:48;38.90;;;23.90;;
46651;SDS011;32377;52.182;5.398;2024-03-08T11:09:30;38.40;;;25.17;;
46651;SDS011;32377;52.182;5.398;2024-03-08T11:14:44;40.45;;;24.63;;
46651;SDS011;32377;52.182;5.398;2024-03-08T11:17:13;39.83;;;25.08;;
46651;SDS011;32377;52.182;5.398;2024-03-08T11:19:45;41.90;;;24.50;;
46651;SDS011;32377;52.182;5.398;2024-03-08T11:22:20;40.58;;;24.92;;
46651;SDS011;32377;52.182;5.398;2024-03-08T11:24:53;35.85;;;22.73;;
46651;SDS011;32377;52.182;5.398;2024-03-08T11:27:19;35.92;;;21.98;;
46651;SDS011;32377;52.182;5.398;2024-03-08T11:29:49;38.58;;;22.52;;
46651;SDS011;32377;52.182;5.398;2024-03-08T11:32:29;35.35;;;22.92;;
46651;SDS011;32377;52.182;5.398;2024-03-08T11:34:55;35.75;;;22.58;;
46651;SDS011;32377;52.182;5.398;2024-03-08T11:37:20;37.20;;;22.98;;
46651;SDS011;32377;52.182;5.398;2024-03-08T11:39:47;36.30;;;23.42;;
46651;SDS011;32377;52.182;5.398;2024-03-08T11:42:17;37.20;;;22.58;;
46651;SDS011;32377;52.182;5.398;2024-03-08T11:44:44;35.80;;;21.92;;
46651;SDS011;32377;52.182;5.398;2024-03-08T11:47:10;37.53;;;21.60;;
46651;SDS011;32377;52.182;5.398;2024-03-08T11:49:37;34.45;;;22.25;;
46651;SDS011;32377;52.182;5.398;2024-03-08T11:52:12;31.85;;;19.73;;
46651;SDS011;32377;52.182;5.398;2024-03-08T11:54:39;33.25;;;20.42;;
46651;SDS011;32377;52.182;5.398;2024-03-08T11:57:05;30.95;;;20.20;;
46651;SDS011;32377;52.182;5.398;2024-03-08T11:59:31;34.25;;;20.38;;
46651;SDS011;32377;52.182;5.398;2024-03-08T12:02:15;34.75;;;20.25;;
46651;SDS011;32377;52.182;5.398;2024-03-08T12:04:41;34.53;;;19.90;;
46651;SDS011;32377;52.182;5.398;2024-03-08T12:07:09;32.83;;;19.25;;
46651;SDS011;32377;52.182;5.398;2024-03-08T12:09:36;31.27;;;20.05;;
46651;SDS011;32377;52.182;5.398;2024-03-08T12:12:03;33.65;;;19.73;;
46651;SDS011;32377;52.182;5.398;2024-03-08T12:14:29;30.35;;;20.27;;
46651;SDS011;32377;52.182;5.398;2024-03-08T12:16:57;29.58;;;18.70;;
46651;SDS011;32377;52.182;5.398;2024-03-08T12:19:23;30.38;;;20.42;;
46651;SDS011;32377;52.182;5.398;2024-03-08T12:21:48;30.40;;;18.58;;
46651;SDS011;32377;52.182;5.398;2024-03-08T12:24:15;28.75;;;19.40;;
46651;SDS011;32377;52.182;5.398;2024-03-08T12:26:45;33.40;;;17.88;;
46651;SDS011;32377;52.182;5.398;2024-03-08T12:31:44;28.15;;;17.60;;
46651;SDS011;32377;52.182;5.398;2024-03-08T12:34:11;33.55;;;18.35;;
46651;SDS011;32377;52.182;5.398;2024-03-08T12:36:38;29.92;;;18.52;;
46651;SDS011;32377;52.182;5.398;2024-03-08T12:39:17;27.25;;;17.60;;
46651;SDS011;32377;52.182;5.398;2024-03-08T12:41:47;31.45;;;17.65;;
46651;SDS011;32377;52.182;5.398;2024-03-08T12:44:14;29.10;;;17.77;;
46651;SDS011;32377;52.182;5.398;2024-03-08T12:46:40;31.15;;;19.88;;
46651;SDS011;32377;52.182;5.398;2024-03-08T12:49:07;31.35;;;18.13;;
46651;SDS011;32377;52.182;5.398;2024-03-08T12:51:33;27.30;;;18.10;;
46651;SDS011;32377;52.182;5.398;2024-03-08T12:53:59;30.38;;;18.27;;
46651;SDS011;32377;52.182;5.398;2024-03-08T12:56:29;28.35;;;17.85;;
46651;SDS011;32377;52.182;5.398;2024-03-08T12:58:57;31.20;;;18.58;;
46651;SDS011;32377;52.182;5.398;2024-03-08T13:01:23;29.33;;;19.02;;
46651;SDS011;32377;52.182;5.398;2024-03-08T13:03:49;30.23;;;18.60;;
46651;SDS011;32377;52.182;5.398;2024-03-08T13:06:14;31.25;;;20.92;;
46651;SDS011;32377;52.182;5.398;2024-03-08T13:08:40;31.73;;;20.23;;
46651;SDS011;32377;52.182;5.398;2024-03-08T13:11:09;28.25;;;18.30;;
46651;SDS011;32377;52.182;5.398;2024-03-08T13:13:39;29.95;;;19.63;;
46651;SDS011;32377;52.182;5.398;2024-03-08T13:16:05;30.63;;;19.75;;
46651;SDS011;32377;52.182;5.398;2024-03-08T13:18:38;32.30;;;19.42;;
46651;SDS011;32377;52.182;5.398;2024-03-08T13:21:04;34.13;;;20.20;;
46651;SDS011;32377;52.182;5.398;2024-03-08T13:23:31;31.52;;;18.67;;
46651;SDS011;32377;52.182;5.398;2024-03-08T13:25:56;32.95;;;20.38;;
46651;SDS011;32377;52.182;5.398;2024-03-08T13:28:22;32.20;;;20.20;;
46651;SDS011;32377;52.182;5.398;2024-03-08T13:30:53;32.60;;;19.58;;
46651;SDS011;32377;52.182;5.398;2024-03-08T13:33:19;32.15;;;20.25;;
46651;SDS011;32377;52.182;5.398;2024-03-08T13:35:45;31.95;;;19.02;;
46651;SDS011;32377;52.182;5.398;2024-03-08T13:38:11;28.92;;;19.27;;
46651;SDS011;32377;52.182;5.398;2024-03-08T13:40:38;33.78;;;19.85;;
46651;SDS011;32377;52.182;5.398;2024-03-08T13:43:05;32.20;;;19.45;;
46651;SDS011;32377;52.182;5.398;2024-03-08T13:45:33;30.88;;;19.98;;
46651;SDS011;32377;52.182;5.398;2024-03-08T13:48:03;30.63;;;20.98;;
46651;SDS011;32377;52.182;5.398;2024-03-08T13:50:29;35.47;;;19.95;;
46651;SDS011;32377;52.182;5.398;2024-03-08T13:52:55;31.23;;;20.27;;
46651;SDS011;32377;52.182;5.398;2024-03-08T13:55:21;29.73;;;19.67;;
46651;SDS011;32377;52.182;5.398;2024-03-08T13:57:47;29.42;;;19.00;;
46651;SDS011;32377;52.182;5.398;2024-03-08T14:00:14;31.02;;;19.83;;
46651;SDS011;32377;52.182;5.398;2024-03-08T14:02:40;33.95;;;19.15;;
46651;SDS011;32377;52.182;5.398;2024-03-08T14:05:09;33.13;;;20.55;;
46651;SDS011;32377;52.182;5.398;2024-03-08T14:07:36;28.50;;;19.08;;
46651;SDS011;32377;52.182;5.398;2024-03-08T14:10:02;29.48;;;18.52;;
46651;SDS011;32377;52.182;5.398;2024-03-08T14:12:28;31.48;;;19.70;;
46651;SDS011;32377;52.182;5.398;2024-03-08T14:14:54;33.17;;;19.75;;
46651;SDS011;32377;52.182;5.398;2024-03-08T14:17:24;32.08;;;18.98;;
46651;SDS011;32377;52.182;5.398;2024-03-08T14:19:52;29.60;;;18.58;;
46651;SDS011;32377;52.182;5.398;2024-03-08T14:22:18;30.83;;;18.42;;
46651;SDS011;32377;52.182;5.398;2024-03-08T14:24:43;28.05;;;17.98;;
46651;SDS011;32377;52.182;5.398;2024-03-08T14:27:09;31.05;;;18.67;;
46651;SDS011;32377;52.182;5.398;2024-03-08T14:29:37;30.17;;;19.05;;